createdAt,value
2023-05-08T00:04:52.242Z,10.39
2023-05-08T00:09:55.327Z,10.44
2023-05-08T00:14:58.113Z,10.39
2023-05-08T00:20:01.144Z,10.34
2023-05-08T00:25:06.727Z,10.41
2023-05-08T00:30:10.093Z,10.33
2023-05-08T00:35:12.876Z,10.34
2023-05-08T00:40:15.947Z,10.27
2023-05-08T00:45:18.709Z,10.28
2023-05-08T00:50:21.509Z,10.24
2023-05-08T00:55:25.273Z,10.20
2023-05-08T01:00:28.468Z,10.22
2023-05-08T01:05:32.409Z,10.16
2023-05-08T01:10:53.529Z,10.09
2023-05-08T01:16:20.739Z,10.08
2023-05-08T01:21:49.245Z,9.97
2023-05-08T01:27:17.118Z,9.96
2023-05-08T01:32:24.547Z,9.98
2023-05-08T01:37:43.908Z,10.06
2023-05-08T01:43:08.577Z,10.04
2023-05-08T01:48:17.440Z,9.93
2023-05-08T01:53:34.233Z,9.90
2023-05-08T01:58:38.628Z,9.87
2023-05-08T02:03:43.630Z,9.82
2023-05-08T02:08:46.567Z,9.86
2023-05-08T02:13:50.336Z,9.84
2023-05-08T02:18:55.876Z,9.80
2023-05-08T02:23:59.721Z,9.75
2023-05-08T02:29:04.242Z,9.72
2023-05-08T02:34:09.662Z,9.71
2023-05-08T02:39:15.634Z,9.73
2023-05-08T02:44:19.002Z,9.67
2023-05-08T02:49:32.568Z,9.59
2023-05-08T02:54:44.611Z,9.53
2023-05-08T03:00:05.604Z,9.55
2023-05-08T03:05:19.886Z,9.62
2023-05-08T03:10:29.942Z,9.49
2023-05-08T03:15:45.950Z,9.61
2023-05-08T03:20:54.760Z,9.65
2023-05-08T03:25:59.707Z,9.63
2023-05-08T03:31:05.653Z,9.84
2023-05-08T03:36:08.961Z,9.92
2023-05-08T03:41:13.147Z,9.74
2023-05-08T03:46:17.951Z,9.74
2023-05-08T03:51:23.123Z,9.92
2023-05-08T03:56:28.830Z,9.82
2023-05-08T04:01:49.256Z,9.99
2023-05-08T04:07:18.939Z,10.30
2023-05-08T04:12:38.981Z,10.58
2023-05-08T04:17:46.016Z,10.93
2023-05-08T04:22:53.545Z,11.10
2023-05-08T04:27:59.140Z,11.00
2023-05-08T04:33:06.426Z,10.93
2023-05-08T04:38:10.292Z,11.36
2023-05-08T04:43:13.353Z,11.75
2023-05-08T04:48:16.200Z,12.20
2023-05-08T04:53:19.095Z,12.62
2023-05-08T04:58:21.939Z,13.29
2023-05-08T05:03:25.246Z,13.21
2023-05-08T05:08:28.303Z,12.50
2023-05-08T05:13:32.692Z,13.49
2023-05-08T05:18:36.005Z,13.61
2023-05-08T05:23:39.645Z,13.40
2023-05-08T05:28:42.629Z,13.97
2023-05-08T05:33:46.006Z,14.60
2023-05-08T05:38:49.021Z,14.35
2023-05-08T05:43:52.015Z,13.53
2023-05-08T05:48:55.353Z,13.18
2023-05-08T05:53:58.411Z,13.20
2023-05-08T05:59:02.197Z,13.96
2023-05-08T06:04:05.489Z,14.50
2023-05-08T06:09:09.522Z,14.59
2023-05-08T06:14:12.283Z,14.60
2023-05-08T06:19:15.666Z,14.57
2023-05-08T06:24:18.716Z,14.65
2023-05-08T06:29:22.319Z,15.30
2023-05-08T06:34:25.088Z,15.26
2023-05-08T06:39:28.052Z,16.81
2023-05-08T06:44:30.732Z,17.14
2023-05-08T06:49:33.551Z,18.22
2023-05-08T06:54:36.379Z,17.68
2023-05-08T06:59:39.211Z,17.47
2023-05-08T07:04:42.016Z,17.23
2023-05-08T07:09:44.814Z,17.82
2023-05-08T07:14:47.453Z,17.61
2023-05-08T07:19:51.508Z,17.56
2023-05-08T07:24:54.514Z,16.70
2023-05-08T07:30:05.095Z,16.59
2023-05-08T07:35:11.679Z,15.77
2023-05-08T07:40:14.249Z,15.44
2023-05-08T07:45:17.077Z,15.32
2023-05-08T07:50:20.933Z,15.11
2023-05-08T07:55:23.896Z,14.76
2023-05-08T08:00:30.128Z,14.69
2023-05-08T08:05:33.226Z,14.45
2023-05-08T08:10:36.536Z,14.43
2023-05-08T08:15:40.433Z,14.45
2023-05-08T08:20:43.237Z,14.49
2023-05-08T08:25:48.318Z,14.50
2023-05-08T08:30:51.379Z,14.89
2023-05-08T08:35:54.207Z,14.76
2023-05-08T08:40:57.019Z,14.93
2023-05-08T08:46:01.176Z,14.73
2023-05-08T08:51:14.346Z,14.75
2023-05-08T08:56:17.488Z,14.88
2023-05-08T09:01:22.313Z,14.55
2023-05-08T09:06:27.911Z,14.48
2023-05-08T09:11:31.950Z,14.42
2023-05-08T09:16:34.976Z,14.23
2023-05-08T09:21:37.877Z,14.10
2023-05-08T09:26:42.452Z,14.16
2023-05-08T09:31:47.446Z,14.30
2023-05-08T09:36:50.532Z,14.22
2023-05-08T09:42:01.062Z,13.99
2023-05-08T09:47:30.207Z,14.12
2023-05-08T09:52:35.194Z,14.24
2023-05-08T09:57:41.661Z,14.33
2023-05-08T10:03:05.455Z,14.57
2023-05-08T10:08:21.554Z,14.66
2023-05-08T10:13:26.462Z,14.74
2023-05-08T10:18:36.286Z,14.68
2023-05-08T10:23:40.456Z,15.08
2023-05-08T10:29:09.104Z,15.03
2023-05-08T10:35:01.646Z,15.27
2023-05-08T10:40:06.711Z,15.58
2023-05-08T10:45:09.949Z,15.57
2023-05-08T10:50:22.100Z,15.73
2023-05-08T10:55:31.309Z,15.68
2023-05-08T11:00:54.304Z,15.93
2023-05-08T11:05:58.345Z,15.70
2023-05-08T11:11:12.257Z,15.23
2023-05-08T11:16:15.189Z,14.67
2023-05-08T11:21:24.446Z,14.69
2023-05-08T11:26:42.885Z,14.82
2023-05-08T11:31:53.130Z,14.72
2023-05-08T11:37:03.335Z,14.50
2023-05-08T11:42:24.959Z,14.62
2023-05-08T11:47:37.961Z,14.63
2023-05-08T11:52:43.580Z,14.66
2023-05-08T11:57:46.564Z,14.64
2023-05-08T12:02:49.406Z,14.61
2023-05-08T12:07:52.580Z,14.78
2023-05-08T12:12:55.336Z,14.81
2023-05-08T12:18:04.216Z,14.86
2023-05-08T12:23:07.470Z,14.99
2023-05-08T12:28:10.973Z,14.91
2023-05-08T12:33:14.645Z,14.97
2023-05-08T12:38:17.435Z,15.13
2023-05-08T12:43:20.161Z,14.97
2023-05-08T12:48:24.281Z,14.85
2023-05-08T12:53:30.938Z,14.78
2023-05-08T12:58:35.167Z,14.63
2023-05-08T13:03:38.905Z,14.48
2023-05-08T13:08:42.256Z,14.14
2023-05-08T13:13:45.058Z,13.99
2023-05-08T13:18:47.868Z,13.93
2023-05-08T13:23:50.668Z,13.92
2023-05-08T13:28:56.520Z,13.88
2023-05-08T13:33:59.552Z,13.93
2023-05-08T13:39:02.548Z,13.82
2023-05-08T13:44:06.908Z,13.88
2023-05-08T13:49:09.492Z,13.87
2023-05-08T13:54:12.491Z,13.81
2023-05-08T13:59:16.427Z,13.78
2023-05-08T14:04:19.473Z,13.49
2023-05-08T14:09:22.139Z,13.40
2023-05-08T14:14:25.243Z,13.37
2023-05-08T14:19:28.178Z,13.37
2023-05-08T14:24:31.105Z,13.32
2023-05-08T14:29:34.740Z,13.21
2023-05-08T14:34:37.432Z,13.25
2023-05-08T14:39:40.084Z,13.24
2023-05-08T14:44:43.748Z,13.27
2023-05-08T14:49:46.479Z,13.22
2023-05-08T14:54:53.733Z,13.29
2023-05-08T14:59:57.141Z,13.20
2023-05-08T15:05:00.055Z,13.23
2023-05-08T15:10:04.267Z,12.96
2023-05-08T15:15:10.433Z,13.03
2023-05-08T15:20:13.217Z,13.01
2023-05-08T15:25:16.629Z,12.97
2023-05-08T15:30:20.735Z,12.99
2023-05-08T15:35:24.153Z,12.93
2023-05-08T15:40:26.961Z,12.91
2023-05-08T15:45:29.625Z,12.86
2023-05-08T15:50:32.759Z,12.94
2023-05-08T15:55:35.385Z,12.86
2023-05-08T16:00:44.862Z,12.86
2023-05-08T16:05:48.506Z,12.93
2023-05-08T16:10:51.540Z,12.89
2023-05-08T16:15:54.693Z,12.89
2023-05-08T16:20:57.502Z,12.98
2023-05-08T16:26:00.558Z,13.04
2023-05-08T16:31:05.142Z,13.00
2023-05-08T16:36:11.732Z,13.07
2023-05-08T16:41:14.763Z,13.06
2023-05-08T16:46:29.151Z,12.98
2023-05-08T16:51:33.240Z,12.95
2023-05-08T16:56:36.574Z,12.86
2023-05-08T17:01:39.288Z,12.89
2023-05-08T17:06:41.978Z,12.92
2023-05-08T17:11:47.848Z,12.93
2023-05-08T17:16:50.779Z,12.93
2023-05-08T17:21:54.203Z,12.98
2023-05-08T17:26:57.451Z,12.93
2023-05-08T17:32:00.057Z,12.86
2023-05-08T17:37:03.865Z,12.81
2023-05-08T17:42:10.182Z,12.68
2023-05-08T17:47:14.537Z,12.65
2023-05-08T17:52:17.732Z,12.63
2023-05-08T17:57:20.617Z,12.57
2023-05-08T18:02:26.426Z,12.59
2023-05-08T18:07:31.157Z,12.54
2023-05-08T18:12:33.954Z,12.46
2023-05-08T18:17:37.204Z,12.45
2023-05-08T18:22:40.074Z,12.40
2023-05-08T18:27:43.468Z,12.32
2023-05-08T18:32:46.573Z,12.29
2023-05-08T18:37:49.381Z,12.26
2023-05-08T18:42:52.419Z,12.22
2023-05-08T18:47:57.848Z,12.31
2023-05-08T18:53:00.681Z,12.27
2023-05-08T18:58:06.310Z,12.27
2023-05-08T19:03:08.902Z,12.26
2023-05-08T19:08:13.383Z,12.17
2023-05-08T19:13:16.265Z,12.24
2023-05-08T19:18:19.104Z,12.17
2023-05-08T19:23:22.068Z,12.18
2023-05-08T19:28:24.716Z,12.18
2023-05-08T19:33:27.507Z,12.14
2023-05-08T19:38:30.887Z,12.09
2023-05-08T19:43:34.767Z,12.10
2023-05-08T19:48:38.166Z,12.08
2023-05-08T19:53:41.111Z,12.10
2023-05-08T19:58:43.848Z,12.01
2023-05-08T20:03:47.360Z,12.01
2023-05-08T20:08:51.164Z,12.00
2023-05-08T20:13:53.744Z,12.02
2023-05-08T20:18:56.310Z,12.05
2023-05-08T20:23:59.731Z,11.98
2023-05-08T20:29:03.938Z,11.89
2023-05-08T20:34:08.887Z,11.88
2023-05-08T20:39:14.529Z,11.78
2023-05-08T20:44:19.427Z,11.81
2023-05-08T20:49:22.075Z,11.75
2023-05-08T20:54:25.187Z,11.74
2023-05-08T20:59:28.315Z,11.68
2023-05-08T21:04:31.648Z,11.70
2023-05-08T21:09:34.450Z,11.74
2023-05-08T21:14:37.780Z,11.68
2023-05-08T21:19:40.662Z,11.66
2023-05-08T21:24:46.044Z,11.55
2023-05-08T21:29:48.912Z,11.44
2023-05-08T21:34:51.941Z,11.48
2023-05-08T21:39:54.718Z,11.47
2023-05-08T21:44:59.295Z,11.43
2023-05-08T21:50:02.201Z,11.44
2023-05-08T21:55:08.877Z,11.43
2023-05-08T22:00:12.679Z,11.35
2023-05-08T22:05:24.730Z,11.23
2023-05-08T22:10:27.372Z,11.23
2023-05-08T22:15:30.904Z,11.18
2023-05-08T22:20:34.319Z,11.18
2023-05-08T22:25:37.422Z,11.11
2023-05-08T22:30:40.074Z,11.09
2023-05-08T22:35:42.766Z,11.07
2023-05-08T22:40:48.021Z,11.00
2023-05-08T22:45:50.910Z,10.94
2023-05-08T22:50:54.039Z,10.93
2023-05-08T22:55:56.558Z,10.88
2023-05-08T23:00:59.926Z,10.78
2023-05-08T23:06:02.794Z,10.66
2023-05-08T23:11:05.402Z,10.61
2023-05-08T23:16:08.252Z,10.64
2023-05-08T23:21:11.064Z,10.48
2023-05-08T23:26:13.948Z,10.55
2023-05-08T23:31:18.624Z,10.47
2023-05-08T23:36:22.198Z,10.50
2023-05-08T23:41:26.364Z,10.35
2023-05-08T23:46:29.153Z,10.34
2023-05-08T23:51:32.460Z,10.32
2023-05-08T23:56:35.204Z,10.29
